Terminal Aerodrome Forecast
Issued by NWS

Home | Current Version | Previous Version | Graphics & Text | Print | Product List | Glossary On
Versions: 1 2 3 4 5 6 7 8 9 10 11 12 13 14
414
FTUS42 KMHX 212346
TAFPGV
TAF
KPGV 212346Z 2200/2224 VRB04KT P6SM VCSH BKN060
     FM220400 00000KT P6SM -SHRA OVC040
     FM220900 00000KT 5SM -SHRA SCT007 OVC010
     FM221100 00000KT 3SM BR SCT007 OVC010
     FM221300 33006KT P6SM BKN010
     FM221500 33008KT P6SM FEW025
      AMD LTD TO CLD VIS AND WIND=

USA.gov is the U.S. government's official web portal to all federal, state and local government web resources and services.